sensor_id;sensor_type;location;lat;lon;timestamp;temperature;humidity
11132;DHT22;5620;53.570;9.718;2022-08-06T00:01:02;13.90;99.90
11132;DHT22;5620;53.570;9.718;2022-08-06T00:03:29;13.90;99.90
11132;DHT22;5620;53.570;9.718;2022-08-06T00:05:56;13.80;99.90
11132;DHT22;5620;53.570;9.718;2022-08-06T00:08:24;13.90;99.90
11132;DHT22;5620;53.570;9.718;2022-08-06T00:10:54;13.90;99.90
11132;DHT22;5620;53.570;9.718;2022-08-06T00:13:21;14.00;99.90
11132;DHT22;5620;53.570;9.718;2022-08-06T00:15:49;14.10;99.90
11132;DHT22;5620;53.570;9.718;2022-08-06T00:18:17;14.10;99.90
11132;DHT22;5620;53.570;9.718;2022-08-06T00:20:46;14.20;99.90
11132;DHT22;5620;53.570;9.718;2022-08-06T00:23:13;14.20;99.90
11132;DHT22;5620;53.570;9.718;2022-08-06T00:25:40;14.30;99.90
11132;DHT22;5620;53.570;9.718;2022-08-06T00:28:07;14.40;99.90
11132;DHT22;5620;53.570;9.718;2022-08-06T00:30:35;14.40;99.90
11132;DHT22;5620;53.570;9.718;2022-08-06T00:33:03;14.50;99.90
11132;DHT22;5620;53.570;9.718;2022-08-06T00:35:29;14.50;99.90
11132;DHT22;5620;53.570;9.718;2022-08-06T00:37:58;14.60;99.90
11132;DHT22;5620;53.570;9.718;2022-08-06T00:40:29;14.60;99.90
11132;DHT22;5620;53.570;9.718;2022-08-06T00:42:59;14.60;99.90
11132;DHT22;5620;53.570;9.718;2022-08-06T00:45:27;14.60;99.90
11132;DHT22;5620;53.570;9.718;2022-08-06T00:47:54;14.50;99.90
11132;DHT22;5620;53.570;9.718;2022-08-06T00:50:19;14.50;99.90
11132;DHT22;5620;53.570;9.718;2022-08-06T00:52:47;14.50;99.90
11132;DHT22;5620;53.570;9.718;2022-08-06T00:55:14;14.40;99.90
11132;DHT22;5620;53.570;9.718;2022-08-06T00:57:40;14.30;99.90
11132;DHT22;5620;53.570;9.718;2022-08-06T01:00:07;14.20;99.90
11132;DHT22;5620;53.570;9.718;2022-08-06T01:02:36;14.10;99.90
11132;DHT22;5620;53.570;9.718;2022-08-06T01:05:05;14.00;99.90
11132;DHT22;5620;53.570;9.718;2022-08-06T01:07:34;13.90;99.90
11132;DHT22;5620;53.570;9.718;2022-08-06T01:09:59;13.90;99.90
11132;DHT22;5620;53.570;9.718;2022-08-06T01:12:26;13.70;99.90
11132;DHT22;5620;53.570;9.718;2022-08-06T01:14:53;13.80;1.00
11132;DHT22;5620;53.570;9.718;2022-08-06T01:32:11;13.70;1.00
11132;DHT22;5620;53.570;9.718;2022-08-06T01:34:41;13.60;1.00
11132;DHT22;5620;53.570;9.718;2022-08-06T01:40:04;13.50;1.00
11132;DHT22;5620;53.570;9.718;2022-08-06T01:42:32;13.50;28.10
11132;DHT22;5620;53.570;9.718;2022-08-06T01:45:00;13.50;70.30
11132;DHT22;5620;53.570;9.718;2022-08-06T01:47:27;13.40;99.90
11132;DHT22;5620;53.570;9.718;2022-08-06T01:50:03;13.40;99.90
11132;DHT22;5620;53.570;9.718;2022-08-06T01:52:44;13.40;99.90
11132;DHT22;5620;53.570;9.718;2022-08-06T01:55:13;13.40;99.90
11132;DHT22;5620;53.570;9.718;2022-08-06T01:57:47;13.40;99.90
11132;DHT22;5620;53.570;9.718;2022-08-06T02:00:19;13.40;99.90
11132;DHT22;5620;53.570;9.718;2022-08-06T02:02:47;13.40;99.90
11132;DHT22;5620;53.570;9.718;2022-08-06T02:05:18;13.30;1.00
11132;DHT22;5620;53.570;9.718;2022-08-06T02:07:48;13.30;1.00
11132;DHT22;5620;53.570;9.718;2022-08-06T02:10:17;13.30;1.00
11132;DHT22;5620;53.570;9.718;2022-08-06T02:12:46;13.30;1.00
11132;DHT22;5620;53.570;9.718;2022-08-06T02:15:26;13.30;1.00
11132;DHT22;5620;53.570;9.718;2022-08-06T02:18:01;13.20;1.00
11132;DHT22;5620;53.570;9.718;2022-08-06T02:20:38;13.20;1.00
11132;DHT22;5620;53.570;9.718;2022-08-06T02:23:11;13.10;1.00
11132;DHT22;5620;53.570;9.718;2022-08-06T02:25:39;13.10;21.50
11132;DHT22;5620;53.570;9.718;2022-08-06T02:28:07;13.00;90.50
11132;DHT22;5620;53.570;9.718;2022-08-06T02:30:47;13.00;99.90
11132;DHT22;5620;53.570;9.718;2022-08-06T02:33:15;13.00;99.90
11132;DHT22;5620;53.570;9.718;2022-08-06T02:38:36;13.00;99.90
11132;DHT22;5620;53.570;9.718;2022-08-06T02:41:21;12.90;1.00
11132;DHT22;5620;53.570;9.718;2022-08-06T02:43:58;12.90;1.00
11132;DHT22;5620;53.570;9.718;2022-08-06T02:46:40;12.90;1.00
11132;DHT22;5620;53.570;9.718;2022-08-06T02:49:20;12.80;1.00
11132;DHT22;5620;53.570;9.718;2022-08-06T02:51:58;12.80;1.00
11132;DHT22;5620;53.570;9.718;2022-08-06T02:55:47;12.80;1.00
11132;DHT22;5620;53.570;9.718;2022-08-06T02:57:56;12.70;1.00
11132;DHT22;5620;53.570;9.718;2022-08-06T03:00:23;12.70;6.50
11132;DHT22;5620;53.570;9.718;2022-08-06T03:02:55;12.70;63.80
11132;DHT22;5620;53.570;9.718;2022-08-06T03:05:27;12.70;96.20
11132;DHT22;5620;53.570;9.718;2022-08-06T03:07:56;12.60;99.90
11132;DHT22;5620;53.570;9.718;2022-08-06T03:10:25;12.60;99.90
11132;DHT22;5620;53.570;9.718;2022-08-06T03:12:56;12.60;99.90
11132;DHT22;5620;53.570;9.718;2022-08-06T03:15:34;12.60;99.90
11132;DHT22;5620;53.570;9.718;2022-08-06T03:18:04;12.60;1.00
11132;DHT22;5620;53.570;9.718;2022-08-06T03:20:33;12.60;1.00
11132;DHT22;5620;53.570;9.718;2022-08-06T03:23:03;12.60;1.00
11132;DHT22;5620;53.570;9.718;2022-08-06T03:25:42;12.60;1.00
11132;DHT22;5620;53.570;9.718;2022-08-06T03:28:15;12.60;1.00
11132;DHT22;5620;53.570;9.718;2022-08-06T03:30:55;12.60;1.00
11132;DHT22;5620;53.570;9.718;2022-08-06T03:33:29;12.60;1.00
11132;DHT22;5620;53.570;9.718;2022-08-06T03:35:58;12.60;48.40
11132;DHT22;5620;53.570;9.718;2022-08-06T03:38:32;12.60;92.00
11132;DHT22;5620;53.570;9.718;2022-08-06T03:41:04;12.60;99.90
11132;DHT22;5620;53.570;9.718;2022-08-06T03:43:32;12.50;99.90
11132;DHT22;5620;53.570;9.718;2022-08-06T03:46:37;12.60;99.90
11132;DHT22;5620;53.570;9.718;2022-08-06T03:49:04;12.60;99.90
11132;DHT22;5620;53.570;9.718;2022-08-06T03:51:33;12.50;99.90
11132;DHT22;5620;53.570;9.718;2022-08-06T03:54:00;12.50;1.00
11132;DHT22;5620;53.570;9.718;2022-08-06T03:56:37;12.60;1.00
11132;DHT22;5620;53.570;9.718;2022-08-06T03:59:05;12.60;1.00
11132;DHT22;5620;53.570;9.718;2022-08-06T04:01:35;12.60;1.00
11132;DHT22;5620;53.570;9.718;2022-08-06T04:04:05;12.60;1.00
11132;DHT22;5620;53.570;9.718;2022-08-06T04:06:32;12.70;1.00
11132;DHT22;5620;53.570;9.718;2022-08-06T04:09:02;12.80;1.00
11132;DHT22;5620;53.570;9.718;2022-08-06T04:11:33;12.90;1.00
11132;DHT22;5620;53.570;9.718;2022-08-06T04:14:04;13.00;1.00
11132;DHT22;5620;53.570;9.718;2022-08-06T04:16:32;13.20;1.00
11132;DHT22;5620;53.570;9.718;2022-08-06T04:19:02;13.40;1.00
11132;DHT22;5620;53.570;9.718;2022-08-06T04:21:29;13.50;1.00
11132;DHT22;5620;53.570;9.718;2022-08-06T04:23:55;13.70;99.90
11132;DHT22;5620;53.570;9.718;2022-08-06T04:26:25;13.90;99.90
11132;DHT22;5620;53.570;9.718;2022-08-06T04:28:58;14.00;1.10
11132;DHT22;5620;53.570;9.718;2022-08-06T04:31:29;14.30;1.00
11132;DHT22;5620;53.570;9.718;2022-08-06T04:34:01;14.40;99.90
11132;DHT22;5620;53.570;9.718;2022-08-06T04:36:28;14.50;99.90
11132;DHT22;5620;53.570;9.718;2022-08-06T04:38:57;14.60;46.90
11132;DHT22;5620;53.570;9.718;2022-08-06T04:41:25;14.70;1.00
11132;DHT22;5620;53.570;9.718;2022-08-06T04:43:53;14.80;1.00
11132;DHT22;5620;53.570;9.718;2022-08-06T04:46:22;14.90;99.90
11132;DHT22;5620;53.570;9.718;2022-08-06T04:48:49;15.00;99.90
11132;DHT22;5620;53.570;9.718;2022-08-06T04:51:14;15.10;5.40
11132;DHT22;5620;53.570;9.718;2022-08-06T04:53:42;15.10;1.00
11132;DHT22;5620;53.570;9.718;2022-08-06T04:56:09;15.20;1.00
11132;DHT22;5620;53.570;9.718;2022-08-06T04:58:37;15.30;99.90
11132;DHT22;5620;53.570;9.718;2022-08-06T05:01:04;15.30;97.60
11132;DHT22;5620;53.570;9.718;2022-08-06T05:03:33;15.20;1.00
11132;DHT22;5620;53.570;9.718;2022-08-06T05:08:55;15.10;1.00
11132;DHT22;5620;53.570;9.718;2022-08-06T05:11:28;15.00;1.00
11132;DHT22;5620;53.570;9.718;2022-08-06T05:14:04;15.00;1.00
11132;DHT22;5620;53.570;9.718;2022-08-06T05:16:36;15.10;1.00
11132;DHT22;5620;53.570;9.718;2022-08-06T05:19:17;15.20;1.00
11132;DHT22;5620;53.570;9.718;2022-08-06T05:21:43;15.20;1.00
11132;DHT22;5620;53.570;9.718;2022-08-06T05:24:15;15.30;1.00
11132;DHT22;5620;53.570;9.718;2022-08-06T05:26:43;15.30;99.90
11132;DHT22;5620;53.570;9.718;2022-08-06T05:29:09;15.30;99.90
11132;DHT22;5620;53.570;9.718;2022-08-06T05:31:38;15.50;99.90
11132;DHT22;5620;53.570;9.718;2022-08-06T05:34:10;15.60;99.90
11132;DHT22;5620;53.570;9.718;2022-08-06T05:36:37;15.80;99.90
11132;DHT22;5620;53.570;9.718;2022-08-06T05:39:06;15.90;99.90
11132;DHT22;5620;53.570;9.718;2022-08-06T05:41:34;16.10;66.10
11132;DHT22;5620;53.570;9.718;2022-08-06T05:44:03;16.30;1.00
11132;DHT22;5620;53.570;9.718;2022-08-06T05:46:40;16.40;1.00
11132;DHT22;5620;53.570;9.718;2022-08-06T05:49:13;16.40;1.00
11132;DHT22;5620;53.570;9.718;2022-08-06T05:51:45;16.20;1.00
11132;DHT22;5620;53.570;9.718;2022-08-06T05:54:39;16.10;1.00
11132;DHT22;5620;53.570;9.718;2022-08-06T05:57:24;15.90;1.00
11132;DHT22;5620;53.570;9.718;2022-08-06T06:00:06;15.70;1.00
11132;DHT22;5620;53.570;9.718;2022-08-06T06:02:35;15.60;1.00
11132;DHT22;5620;53.570;9.718;2022-08-06T06:05:03;15.60;1.00
11132;DHT22;5620;53.570;9.718;2022-08-06T06:07:31;15.40;1.00
11132;DHT22;5620;53.570;9.718;2022-08-06T06:09:58;15.50;1.00
11132;DHT22;5620;53.570;9.718;2022-08-06T06:12:25;15.70;1.00
11132;DHT22;5620;53.570;9.718;2022-08-06T06:14:58;15.90;1.00
11132;DHT22;5620;53.570;9.718;2022-08-06T06:24:00;16.70;1.00
11132;DHT22;5620;53.570;9.718;2022-08-06T06:26:57;17.30;99.90
11132;DHT22;5620;53.570;9.718;2022-08-06T06:35:53;18.80;83.80
11132;DHT22;5620;53.570;9.718;2022-08-06T06:41:33;18.60;1.00
11132;DHT22;5620;53.570;9.718;2022-08-06T06:44:17;18.70;1.00
11132;DHT22;5620;53.570;9.718;2022-08-06T06:47:24;18.90;1.00
11132;DHT22;5620;53.570;9.718;2022-08-06T06:50:22;19.00;1.00
11132;DHT22;5620;53.570;9.718;2022-08-06T06:52:51;18.90;1.00
11132;DHT22;5620;53.570;9.718;2022-08-06T06:58:42;18.60;1.00
11132;DHT22;5620;53.570;9.718;2022-08-06T07:01:14;18.80;1.00
11132;DHT22;5620;53.570;9.718;2022-08-06T07:03:43;19.10;1.00
11132;DHT22;5620;53.570;9.718;2022-08-06T07:06:16;19.40;1.00
11132;DHT22;5620;53.570;9.718;2022-08-06T07:08:46;19.40;1.00
11132;DHT22;5620;53.570;9.718;2022-08-06T07:11:25;19.10;1.00
11132;DHT22;5620;53.570;9.718;2022-08-06T07:13:58;19.00;99.90
11132;DHT22;5620;53.570;9.718;2022-08-06T07:16:28;19.00;99.90
11132;DHT22;5620;53.570;9.718;2022-08-06T07:19:01;18.90;99.90
11132;DHT22;5620;53.570;9.718;2022-08-06T07:21:30;19.00;99.90
11132;DHT22;5620;53.570;9.718;2022-08-06T07:23:58;19.10;99.90
11132;DHT22;5620;53.570;9.718;2022-08-06T07:26:35;19.30;99.90
11132;DHT22;5620;53.570;9.718;2022-08-06T07:29:15;19.20;99.90
11132;DHT22;5620;53.570;9.718;2022-08-06T07:31:45;19.20;99.90
11132;DHT22;5620;53.570;9.718;2022-08-06T07:34:18;19.40;99.90
11132;DHT22;5620;53.570;9.718;2022-08-06T07:36:52;19.70;99.90
11132;DHT22;5620;53.570;9.718;2022-08-06T07:39:32;19.90;99.90
11132;DHT22;5620;53.570;9.718;2022-08-06T07:42:09;20.10;99.90
11132;DHT22;5620;53.570;9.718;2022-08-06T07:44:40;20.20;99.90
11132;DHT22;5620;53.570;9.718;2022-08-06T07:47:09;20.20;99.90
11132;DHT22;5620;53.570;9.718;2022-08-06T07:49:44;20.00;99.90
11132;DHT22;5620;53.570;9.718;2022-08-06T07:52:15;19.70;99.90
11132;DHT22;5620;53.570;9.718;2022-08-06T07:54:42;19.60;99.90
11132;DHT22;5620;53.570;9.718;2022-08-06T07:57:19;19.60;99.90
11132;DHT22;5620;53.570;9.718;2022-08-06T07:59:45;19.40;99.90
11132;DHT22;5620;53.570;9.718;2022-08-06T08:02:23;19.20;99.90
11132;DHT22;5620;53.570;9.718;2022-08-06T08:04:54;18.90;99.90
11132;DHT22;5620;53.570;9.718;2022-08-06T08:07:23;18.80;99.90
11132;DHT22;5620;53.570;9.718;2022-08-06T08:09:52;18.80;99.90
11132;DHT22;5620;53.570;9.718;2022-08-06T08:12:20;18.70;99.90
11132;DHT22;5620;53.570;9.718;2022-08-06T08:14:53;18.60;99.90
11132;DHT22;5620;53.570;9.718;2022-08-06T08:17:19;18.50;99.90
11132;DHT22;5620;53.570;9.718;2022-08-06T08:19:47;18.60;99.90
11132;DHT22;5620;53.570;9.718;2022-08-06T08:22:18;18.70;99.90
11132;DHT22;5620;53.570;9.718;2022-08-06T08:24:49;18.70;99.90
11132;DHT22;5620;53.570;9.718;2022-08-06T08:27:16;18.70;99.90
11132;DHT22;5620;53.570;9.718;2022-08-06T08:29:44;18.70;99.90
11132;DHT22;5620;53.570;9.718;2022-08-06T08:32:12;18.70;99.90
11132;DHT22;5620;53.570;9.718;2022-08-06T08:34:38;18.80;99.90
11132;DHT22;5620;53.570;9.718;2022-08-06T08:37:06;18.90;99.90
11132;DHT22;5620;53.570;9.718;2022-08-06T08:39:32;19.00;99.90
11132;DHT22;5620;53.570;9.718;2022-08-06T08:42:39;19.10;99.90
11132;DHT22;5620;53.570;9.718;2022-08-06T08:45:05;19.30;99.90
11132;DHT22;5620;53.570;9.718;2022-08-06T08:47:33;19.40;99.90
11132;DHT22;5620;53.570;9.718;2022-08-06T08:50:01;19.50;99.90
11132;DHT22;5620;53.570;9.718;2022-08-06T08:52:33;19.60;99.90
11132;DHT22;5620;53.570;9.718;2022-08-06T08:55:05;19.70;99.90
11132;DHT22;5620;53.570;9.718;2022-08-06T08:57:33;19.90;99.90
11132;DHT22;5620;53.570;9.718;2022-08-06T09:00:02;20.10;99.90
11132;DHT22;5620;53.570;9.718;2022-08-06T09:02:30;20.40;99.90
11132;DHT22;5620;53.570;9.718;2022-08-06T09:04:56;20.70;25.70
11132;DHT22;5620;53.570;9.718;2022-08-06T09:07:23;21.10;1.00
11132;DHT22;5620;53.570;9.718;2022-08-06T09:09:51;21.60;1.00
11132;DHT22;5620;53.570;9.718;2022-08-06T09:12:20;21.70;1.00
11132;DHT22;5620;53.570;9.718;2022-08-06T09:14:46;21.70;1.00
11132;DHT22;5620;53.570;9.718;2022-08-06T09:17:12;21.40;1.00
11132;DHT22;5620;53.570;9.718;2022-08-06T09:19:39;21.10;1.00
11132;DHT22;5620;53.570;9.718;2022-08-06T09:22:06;20.80;1.00
11132;DHT22;5620;53.570;9.718;2022-08-06T09:24:33;20.60;1.00
11132;DHT22;5620;53.570;9.718;2022-08-06T09:27:15;20.60;1.00
11132;DHT22;5620;53.570;9.718;2022-08-06T09:29:53;20.70;1.00
11132;DHT22;5620;53.570;9.718;2022-08-06T09:32:38;20.60;1.00
11132;DHT22;5620;53.570;9.718;2022-08-06T09:35:26;20.60;1.00
11132;DHT22;5620;53.570;9.718;2022-08-06T09:38:07;20.70;1.00
11132;DHT22;5620;53.570;9.718;2022-08-06T09:40:33;20.80;1.00
11132;DHT22;5620;53.570;9.718;2022-08-06T09:43:01;21.00;1.00
11132;DHT22;5620;53.570;9.718;2022-08-06T09:45:27;21.60;1.00
11132;DHT22;5620;53.570;9.718;2022-08-06T09:48:04;22.00;1.00
11132;DHT22;5620;53.570;9.718;2022-08-06T09:50:46;22.30;1.00
11132;DHT22;5620;53.570;9.718;2022-08-06T09:53:16;22.70;1.00
11132;DHT22;5620;53.570;9.718;2022-08-06T09:55:44;22.70;1.00
11132;DHT22;5620;53.570;9.718;2022-08-06T09:58:14;22.60;1.00
11132;DHT22;5620;53.570;9.718;2022-08-06T10:00:52;22.50;1.00
11132;DHT22;5620;53.570;9.718;2022-08-06T10:03:20;22.60;1.00
11132;DHT22;5620;53.570;9.718;2022-08-06T10:06:05;22.90;1.00
11132;DHT22;5620;53.570;9.718;2022-08-06T10:08:33;22.80;1.00
11132;DHT22;5620;53.570;9.718;2022-08-06T10:11:03;22.40;1.00
11132;DHT22;5620;53.570;9.718;2022-08-06T10:13:31;22.00;1.00
11132;DHT22;5620;53.570;9.718;2022-08-06T10:16:15;21.90;1.00
11132;DHT22;5620;53.570;9.718;2022-08-06T10:18:50;21.90;1.00
11132;DHT22;5620;53.570;9.718;2022-08-06T10:21:19;22.10;1.00
11132;DHT22;5620;53.570;9.718;2022-08-06T10:23:49;22.40;1.00
11132;DHT22;5620;53.570;9.718;2022-08-06T10:26:21;22.60;1.00
11132;DHT22;5620;53.570;9.718;2022-08-06T10:28:48;23.30;1.00
11132;DHT22;5620;53.570;9.718;2022-08-06T10:31:20;24.20;1.00
11132;DHT22;5620;53.570;9.718;2022-08-06T10:36:59;24.30;1.00
11132;DHT22;5620;53.570;9.718;2022-08-06T10:39:33;24.10;1.00
11132;DHT22;5620;53.570;9.718;2022-08-06T10:42:03;24.20;1.00
11132;DHT22;5620;53.570;9.718;2022-08-06T10:44:32;24.20;1.00
11132;DHT22;5620;53.570;9.718;2022-08-06T10:47:02;24.20;1.00
11132;DHT22;5620;53.570;9.718;2022-08-06T10:49:31;24.20;1.00
11132;DHT22;5620;53.570;9.718;2022-08-06T10:51:58;24.00;1.00
11132;DHT22;5620;53.570;9.718;2022-08-06T10:54:28;23.90;1.00
11132;DHT22;5620;53.570;9.718;2022-08-06T10:56:57;23.70;1.00
11132;DHT22;5620;53.570;9.718;2022-08-06T10:59:23;23.40;1.00
11132;DHT22;5620;53.570;9.718;2022-08-06T11:02:05;23.30;1.00
11132;DHT22;5620;53.570;9.718;2022-08-06T11:05:02;23.50;1.00
11132;DHT22;5620;53.570;9.718;2022-08-06T11:07:54;24.30;1.00
11132;DHT22;5620;53.570;9.718;2022-08-06T11:13:59;27.20;1.00
11132;DHT22;5620;53.570;9.718;2022-08-06T11:16:30;29.40;1.00
11132;DHT22;5620;53.570;9.718;2022-08-06T11:21:49;29.30;1.00
11132;DHT22;5620;53.570;9.718;2022-08-06T11:24:17;29.60;1.00
11132;DHT22;5620;53.570;9.718;2022-08-06T11:26:44;31.00;1.00
11132;DHT22;5620;53.570;9.718;2022-08-06T11:29:14;31.90;1.00
11132;DHT22;5620;53.570;9.718;2022-08-06T11:31:47;31.70;1.00
11132;DHT22;5620;53.570;9.718;2022-08-06T11:34:17;32.70;1.00
11132;DHT22;5620;53.570;9.718;2022-08-06T11:36:54;34.30;1.00
11132;DHT22;5620;53.570;9.718;2022-08-06T11:39:23;36.20;99.90
11132;DHT22;5620;53.570;9.718;2022-08-06T11:41:59;37.70;99.90
11132;DHT22;5620;53.570;9.718;2022-08-06T11:44:31;38.20;99.90
11132;DHT22;5620;53.570;9.718;2022-08-06T11:47:16;38.10;99.90
11132;DHT22;5620;53.570;9.718;2022-08-06T11:49:49;38.30;99.90
11132;DHT22;5620;53.570;9.718;2022-08-06T11:52:38;39.10;99.90
11132;DHT22;5620;53.570;9.718;2022-08-06T11:55:06;39.80;99.90
11132;DHT22;5620;53.570;9.718;2022-08-06T11:57:31;38.50;99.90
11132;DHT22;5620;53.570;9.718;2022-08-06T12:08:31;39.10;99.90
11132;DHT22;5620;53.570;9.718;2022-08-06T12:11:25;40.00;99.90
11132;DHT22;5620;53.570;9.718;2022-08-06T12:13:52;39.30;99.90
11132;DHT22;5620;53.570;9.718;2022-08-06T12:16:34;38.50;99.90
11132;DHT22;5620;53.570;9.718;2022-08-06T12:19:10;39.50;99.90
11132;DHT22;5620;53.570;9.718;2022-08-06T12:21:37;40.00;99.90
11132;DHT22;5620;53.570;9.718;2022-08-06T12:24:04;40.90;99.90
11132;DHT22;5620;53.570;9.718;2022-08-06T12:26:32;41.20;99.90
11132;DHT22;5620;53.570;9.718;2022-08-06T12:29:06;41.10;99.90
11132;DHT22;5620;53.570;9.718;2022-08-06T12:31:36;41.30;99.90
11132;DHT22;5620;53.570;9.718;2022-08-06T12:34:07;41.30;99.90
11132;DHT22;5620;53.570;9.718;2022-08-06T12:36:38;41.10;99.90
11132;DHT22;5620;53.570;9.718;2022-08-06T12:39:07;41.60;99.90
11132;DHT22;5620;53.570;9.718;2022-08-06T12:41:36;41.70;99.90
11132;DHT22;5620;53.570;9.718;2022-08-06T12:44:04;41.80;99.90
11132;DHT22;5620;53.570;9.718;2022-08-06T12:46:34;42.10;99.90
11132;DHT22;5620;53.570;9.718;2022-08-06T12:49:02;41.40;99.90
11132;DHT22;5620;53.570;9.718;2022-08-06T12:51:28;41.30;99.90
11132;DHT22;5620;53.570;9.718;2022-08-06T12:53:58;42.00;99.90
11132;DHT22;5620;53.570;9.718;2022-08-06T12:56:26;42.10;99.90
11132;DHT22;5620;53.570;9.718;2022-08-06T12:58:54;42.40;99.90
11132;DHT22;5620;53.570;9.718;2022-08-06T13:01:27;42.00;99.90
11132;DHT22;5620;53.570;9.718;2022-08-06T13:03:55;41.90;99.90
11132;DHT22;5620;53.570;9.718;2022-08-06T13:06:27;42.00;99.90
11132;DHT22;5620;53.570;9.718;2022-08-06T13:08:54;42.40;99.90
11132;DHT22;5620;53.570;9.718;2022-08-06T13:11:29;42.80;99.90
11132;DHT22;5620;53.570;9.718;2022-08-06T13:14:10;43.10;99.90
11132;DHT22;5620;53.570;9.718;2022-08-06T13:16:41;43.50;99.90
11132;DHT22;5620;53.570;9.718;2022-08-06T13:19:25;43.90;99.90
11132;DHT22;5620;53.570;9.718;2022-08-06T13:22:00;44.40;99.90
11132;DHT22;5620;53.570;9.718;2022-08-06T13:24:28;44.20;99.90
11132;DHT22;5620;53.570;9.718;2022-08-06T13:26:55;44.80;99.90
11132;DHT22;5620;53.570;9.718;2022-08-06T13:29:28;44.70;99.90
11132;DHT22;5620;53.570;9.718;2022-08-06T13:32:03;44.50;99.90
11132;DHT22;5620;53.570;9.718;2022-08-06T13:34:29;44.90;99.90
11132;DHT22;5620;53.570;9.718;2022-08-06T13:36:58;45.30;99.90
11132;DHT22;5620;53.570;9.718;2022-08-06T13:39:52;44.50;99.90
11132;DHT22;5620;53.570;9.718;2022-08-06T13:42:18;44.60;99.90
11132;DHT22;5620;53.570;9.718;2022-08-06T13:44:48;44.50;99.90
11132;DHT22;5620;53.570;9.718;2022-08-06T13:47:26;44.60;99.90
11132;DHT22;5620;53.570;9.718;2022-08-06T13:49:53;44.40;99.90
11132;DHT22;5620;53.570;9.718;2022-08-06T13:52:20;44.70;99.90
11132;DHT22;5620;53.570;9.718;2022-08-06T13:54:47;45.40;99.90
11132;DHT22;5620;53.570;9.718;2022-08-06T13:57:14;45.50;99.90
11132;DHT22;5620;53.570;9.718;2022-08-06T13:59:42;45.50;99.90
11132;DHT22;5620;53.570;9.718;2022-08-06T14:02:10;45.30;99.90
11132;DHT22;5620;53.570;9.718;2022-08-06T14:04:36;45.30;99.90
11132;DHT22;5620;53.570;9.718;2022-08-06T14:07:02;45.20;99.90
11132;DHT22;5620;53.570;9.718;2022-08-06T14:09:29;45.80;99.90
11132;DHT22;5620;53.570;9.718;2022-08-06T14:11:58;46.10;99.90
11132;DHT22;5620;53.570;9.718;2022-08-06T14:14:25;45.90;99.90
11132;DHT22;5620;53.570;9.718;2022-08-06T14:16:54;46.30;99.90
11132;DHT22;5620;53.570;9.718;2022-08-06T14:19:21;46.90;99.90
11132;DHT22;5620;53.570;9.718;2022-08-06T14:21:49;47.20;99.90
11132;DHT22;5620;53.570;9.718;2022-08-06T14:24:15;47.00;99.90
11132;DHT22;5620;53.570;9.718;2022-08-06T14:26:42;47.10;99.90
11132;DHT22;5620;53.570;9.718;2022-08-06T14:29:08;47.20;99.90
11132;DHT22;5620;53.570;9.718;2022-08-06T14:31:33;47.20;99.90
11132;DHT22;5620;53.570;9.718;2022-08-06T14:34:00;47.20;99.90
11132;DHT22;5620;53.570;9.718;2022-08-06T14:36:27;47.40;99.90
11132;DHT22;5620;53.570;9.718;2022-08-06T14:38:56;47.50;99.90
11132;DHT22;5620;53.570;9.718;2022-08-06T14:41:22;48.00;99.90
11132;DHT22;5620;53.570;9.718;2022-08-06T14:43:48;48.10;99.90
11132;DHT22;5620;53.570;9.718;2022-08-06T14:46:16;48.20;99.90
11132;DHT22;5620;53.570;9.718;2022-08-06T14:48:43;48.20;99.90
11132;DHT22;5620;53.570;9.718;2022-08-06T14:51:10;47.90;99.90
11132;DHT22;5620;53.570;9.718;2022-08-06T14:53:37;48.10;99.90
11132;DHT22;5620;53.570;9.718;2022-08-06T14:56:03;48.40;99.90
11132;DHT22;5620;53.570;9.718;2022-08-06T14:58:30;49.00;99.90
11132;DHT22;5620;53.570;9.718;2022-08-06T15:00:57;49.00;99.90
11132;DHT22;5620;53.570;9.718;2022-08-06T15:03:25;48.70;99.90
11132;DHT22;5620;53.570;9.718;2022-08-06T15:05:54;48.50;99.90
11132;DHT22;5620;53.570;9.718;2022-08-06T15:08:23;49.00;99.90
11132;DHT22;5620;53.570;9.718;2022-08-06T15:10:48;49.00;99.90
11132;DHT22;5620;53.570;9.718;2022-08-06T15:13:15;49.00;99.90
11132;DHT22;5620;53.570;9.718;2022-08-06T15:15:42;49.30;99.90
11132;DHT22;5620;53.570;9.718;2022-08-06T15:18:08;49.40;99.90
11132;DHT22;5620;53.570;9.718;2022-08-06T15:20:36;49.20;99.90
11132;DHT22;5620;53.570;9.718;2022-08-06T15:23:02;49.00;99.90
11132;DHT22;5620;53.570;9.718;2022-08-06T15:25:27;49.10;99.90
11132;DHT22;5620;53.570;9.718;2022-08-06T15:27:53;50.00;99.90
11132;DHT22;5620;53.570;9.718;2022-08-06T15:30:20;50.60;99.90
11132;DHT22;5620;53.570;9.718;2022-08-06T15:32:47;50.70;99.90
11132;DHT22;5620;53.570;9.718;2022-08-06T15:35:15;49.40;99.90
11132;DHT22;5620;53.570;9.718;2022-08-06T15:37:42;48.70;99.90
11132;DHT22;5620;53.570;9.718;2022-08-06T15:40:09;48.60;99.90
11132;DHT22;5620;53.570;9.718;2022-08-06T15:42:35;49.00;99.90
11132;DHT22;5620;53.570;9.718;2022-08-06T15:45:02;49.50;99.90
11132;DHT22;5620;53.570;9.718;2022-08-06T15:47:28;50.00;99.90
11132;DHT22;5620;53.570;9.718;2022-08-06T15:49:55;50.00;99.90
11132;DHT22;5620;53.570;9.718;2022-08-06T15:52:21;49.60;99.90
11132;DHT22;5620;53.570;9.718;2022-08-06T15:54:48;48.70;99.90
11132;DHT22;5620;53.570;9.718;2022-08-06T15:57:14;48.80;99.90
11132;DHT22;5620;53.570;9.718;2022-08-06T15:59:41;48.20;99.90
11132;DHT22;5620;53.570;9.718;2022-08-06T16:02:09;48.00;99.90
11132;DHT22;5620;53.570;9.718;2022-08-06T16:04:35;48.50;99.90
11132;DHT22;5620;53.570;9.718;2022-08-06T16:07:04;49.00;99.90
11132;DHT22;5620;53.570;9.718;2022-08-06T16:09:30;49.20;99.90
11132;DHT22;5620;53.570;9.718;2022-08-06T16:11:57;49.20;99.90
11132;DHT22;5620;53.570;9.718;2022-08-06T16:14:22;48.80;99.90
11132;DHT22;5620;53.570;9.718;2022-08-06T16:16:51;47.90;99.90
11132;DHT22;5620;53.570;9.718;2022-08-06T16:19:18;47.60;99.90
11132;DHT22;5620;53.570;9.718;2022-08-06T16:21:45;47.90;99.90
11132;DHT22;5620;53.570;9.718;2022-08-06T16:24:11;48.10;99.90
11132;DHT22;5620;53.570;9.718;2022-08-06T16:26:39;48.10;99.90
11132;DHT22;5620;53.570;9.718;2022-08-06T16:29:09;48.20;99.90
11132;DHT22;5620;53.570;9.718;2022-08-06T16:31:36;48.00;99.90
11132;DHT22;5620;53.570;9.718;2022-08-06T16:34:03;47.30;99.90
11132;DHT22;5620;53.570;9.718;2022-08-06T16:36:30;47.40;99.90
11132;DHT22;5620;53.570;9.718;2022-08-06T16:38:57;47.30;99.90
11132;DHT22;5620;53.570;9.718;2022-08-06T16:41:22;47.10;99.90
11132;DHT22;5620;53.570;9.718;2022-08-06T16:43:51;47.10;99.90
11132;DHT22;5620;53.570;9.718;2022-08-06T16:46:18;46.70;99.90
11132;DHT22;5620;53.570;9.718;2022-08-06T16:48:46;46.20;99.90
11132;DHT22;5620;53.570;9.718;2022-08-06T16:51:12;46.10;99.90
11132;DHT22;5620;53.570;9.718;2022-08-06T16:53:40;45.90;99.90
11132;DHT22;5620;53.570;9.718;2022-08-06T16:56:09;46.00;99.90
11132;DHT22;5620;53.570;9.718;2022-08-06T16:58:35;45.70;99.90
11132;DHT22;5620;53.570;9.718;2022-08-06T17:01:00;45.40;99.90
11132;DHT22;5620;53.570;9.718;2022-08-06T17:03:28;45.00;99.90
11132;DHT22;5620;53.570;9.718;2022-08-06T17:05:55;44.30;99.90
11132;DHT22;5620;53.570;9.718;2022-08-06T17:08:21;43.90;99.90
11132;DHT22;5620;53.570;9.718;2022-08-06T17:10:46;44.00;99.90
11132;DHT22;5620;53.570;9.718;2022-08-06T17:13:13;43.70;99.90
11132;DHT22;5620;53.570;9.718;2022-08-06T17:15:40;43.70;99.90